sensor_id;sensor_type;location;lat;lon;timestamp;P1;durP1;ratioP1;P2;durP2;ratioP2
56830;SDS011;42713;42.676;23.352;2023-05-07T00:02:20;22.45;;;10.55;;
56830;SDS011;42713;42.676;23.352;2023-05-07T00:04:46;17.45;;;10.57;;
56830;SDS011;42713;42.676;23.352;2023-05-07T00:07:12;24.75;;;10.50;;
56830;SDS011;42713;42.676;23.352;2023-05-07T00:09:37;17.83;;;9.48;;
56830;SDS011;42713;42.676;23.352;2023-05-07T00:12:03;17.05;;;9.73;;
56830;SDS011;42713;42.676;23.352;2023-05-07T00:14:28;19.23;;;8.82;;
56830;SDS011;42713;42.676;23.352;2023-05-07T00:16:54;17.92;;;10.13;;
56830;SDS011;42713;42.676;23.352;2023-05-07T00:19:20;18.88;;;8.73;;
56830;SDS011;42713;42.676;23.352;2023-05-07T00:21:45;16.85;;;9.48;;
56830;SDS011;42713;42.676;23.352;2023-05-07T00:24:11;14.77;;;9.23;;
56830;SDS011;42713;42.676;23.352;2023-05-07T00:26:37;18.15;;;9.23;;
56830;SDS011;42713;42.676;23.352;2023-05-07T00:29:02;17.05;;;10.13;;
56830;SDS011;42713;42.676;23.352;2023-05-07T00:31:28;15.35;;;8.32;;
56830;SDS011;42713;42.676;23.352;2023-05-07T00:33:53;17.52;;;9.32;;
56830;SDS011;42713;42.676;23.352;2023-05-07T00:36:19;14.98;;;9.02;;
56830;SDS011;42713;42.676;23.352;2023-05-07T00:38:45;14.98;;;9.10;;
56830;SDS011;42713;42.676;23.352;2023-05-07T00:41:10;19.42;;;9.27;;
56830;SDS011;42713;42.676;23.352;2023-05-07T00:43:35;18.38;;;9.52;;
56830;SDS011;42713;42.676;23.352;2023-05-07T00:46:01;21.23;;;9.75;;
56830;SDS011;42713;42.676;23.352;2023-05-07T00:48:27;15.85;;;8.68;;
56830;SDS011;42713;42.676;23.352;2023-05-07T00:50:52;17.95;;;8.75;;
56830;SDS011;42713;42.676;23.352;2023-05-07T00:53:18;15.70;;;9.00;;
56830;SDS011;42713;42.676;23.352;2023-05-07T00:55:44;19.13;;;8.93;;
56830;SDS011;42713;42.676;23.352;2023-05-07T00:58:10;15.60;;;8.95;;
56830;SDS011;42713;42.676;23.352;2023-05-07T01:00:35;16.75;;;9.05;;
56830;SDS011;42713;42.676;23.352;2023-05-07T01:03:01;14.90;;;8.68;;
56830;SDS011;42713;42.676;23.352;2023-05-07T01:05:27;20.25;;;8.25;;
56830;SDS011;42713;42.676;23.352;2023-05-07T01:07:53;14.20;;;7.88;;
56830;SDS011;42713;42.676;23.352;2023-05-07T01:10:21;16.10;;;8.48;;
56830;SDS011;42713;42.676;23.352;2023-05-07T01:12:47;18.17;;;8.52;;
56830;SDS011;42713;42.676;23.352;2023-05-07T01:15:14;17.88;;;8.65;;
56830;SDS011;42713;42.676;23.352;2023-05-07T01:17:41;16.67;;;8.63;;
56830;SDS011;42713;42.676;23.352;2023-05-07T01:20:09;14.65;;;8.20;;
56830;SDS011;42713;42.676;23.352;2023-05-07T01:22:35;17.42;;;8.57;;
56830;SDS011;42713;42.676;23.352;2023-05-07T01:25:03;13.85;;;7.53;;
56830;SDS011;42713;42.676;23.352;2023-05-07T01:27:29;14.60;;;7.40;;
56830;SDS011;42713;42.676;23.352;2023-05-07T01:29:55;11.70;;;6.15;;
56830;SDS011;42713;42.676;23.352;2023-05-07T01:34:55;11.27;;;6.10;;
56830;SDS011;42713;42.676;23.352;2023-05-07T01:37:22;13.02;;;6.72;;
56830;SDS011;42713;42.676;23.352;2023-05-07T01:39:48;13.48;;;6.50;;
56830;SDS011;42713;42.676;23.352;2023-05-07T01:42:14;11.98;;;6.50;;
56830;SDS011;42713;42.676;23.352;2023-05-07T01:44:40;12.48;;;5.30;;
56830;SDS011;42713;42.676;23.352;2023-05-07T01:47:05;10.65;;;5.30;;
56830;SDS011;42713;42.676;23.352;2023-05-07T01:49:31;11.30;;;5.88;;
56830;SDS011;42713;42.676;23.352;2023-05-07T01:51:57;12.35;;;5.75;;
56830;SDS011;42713;42.676;23.352;2023-05-07T01:54:26;13.02;;;5.32;;
56830;SDS011;42713;42.676;23.352;2023-05-07T01:56:56;12.30;;;5.50;;
56830;SDS011;42713;42.676;23.352;2023-05-07T01:59:21;15.05;;;6.13;;
56830;SDS011;42713;42.676;23.352;2023-05-07T02:01:47;10.55;;;5.25;;
56830;SDS011;42713;42.676;23.352;2023-05-07T02:04:13;9.02;;;4.57;;
56830;SDS011;42713;42.676;23.352;2023-05-07T02:06:38;11.05;;;5.35;;
56830;SDS011;42713;42.676;23.352;2023-05-07T02:09:04;9.57;;;5.28;;
56830;SDS011;42713;42.676;23.352;2023-05-07T02:11:30;10.05;;;5.30;;
56830;SDS011;42713;42.676;23.352;2023-05-07T02:13:55;9.40;;;4.70;;
56830;SDS011;42713;42.676;23.352;2023-05-07T02:16:20;11.85;;;5.30;;
56830;SDS011;42713;42.676;23.352;2023-05-07T02:18:47;10.35;;;5.40;;
56830;SDS011;42713;42.676;23.352;2023-05-07T02:21:12;11.65;;;5.68;;
56830;SDS011;42713;42.676;23.352;2023-05-07T02:23:38;11.32;;;5.45;;
56830;SDS011;42713;42.676;23.352;2023-05-07T02:26:04;15.98;;;6.05;;
56830;SDS011;42713;42.676;23.352;2023-05-07T02:28:29;11.77;;;5.30;;
56830;SDS011;42713;42.676;23.352;2023-05-07T02:30:55;10.77;;;5.90;;
56830;SDS011;42713;42.676;23.352;2023-05-07T02:33:20;12.43;;;5.47;;
56830;SDS011;42713;42.676;23.352;2023-05-07T02:35:46;13.30;;;5.47;;
56830;SDS011;42713;42.676;23.352;2023-05-07T02:38:11;11.73;;;5.93;;
56830;SDS011;42713;42.676;23.352;2023-05-07T02:40:37;12.02;;;6.57;;
56830;SDS011;42713;42.676;23.352;2023-05-07T02:43:05;12.27;;;6.03;;
56830;SDS011;42713;42.676;23.352;2023-05-07T02:45:31;12.40;;;6.35;;
56830;SDS011;42713;42.676;23.352;2023-05-07T02:47:57;15.27;;;6.45;;
56830;SDS011;42713;42.676;23.352;2023-05-07T02:50:23;12.23;;;5.97;;
56830;SDS011;42713;42.676;23.352;2023-05-07T02:52:48;14.27;;;6.68;;
56830;SDS011;42713;42.676;23.352;2023-05-07T02:55:14;13.13;;;6.95;;
56830;SDS011;42713;42.676;23.352;2023-05-07T02:57:40;14.00;;;7.20;;
56830;SDS011;42713;42.676;23.352;2023-05-07T03:00:12;12.32;;;7.32;;
56830;SDS011;42713;42.676;23.352;2023-05-07T03:02:39;13.98;;;7.95;;
56830;SDS011;42713;42.676;23.352;2023-05-07T03:05:05;12.32;;;7.57;;
56830;SDS011;42713;42.676;23.352;2023-05-07T03:07:31;13.23;;;7.95;;
56830;SDS011;42713;42.676;23.352;2023-05-07T03:09:57;11.93;;;7.57;;
56830;SDS011;42713;42.676;23.352;2023-05-07T03:12:23;13.32;;;8.63;;
56830;SDS011;42713;42.676;23.352;2023-05-07T03:14:48;16.73;;;8.65;;
56830;SDS011;42713;42.676;23.352;2023-05-07T03:17:14;13.02;;;8.65;;
56830;SDS011;42713;42.676;23.352;2023-05-07T03:19:41;18.08;;;8.48;;
56830;SDS011;42713;42.676;23.352;2023-05-07T03:22:06;15.65;;;8.68;;
56830;SDS011;42713;42.676;23.352;2023-05-07T03:24:32;11.25;;;7.60;;
56830;SDS011;42713;42.676;23.352;2023-05-07T03:26:57;13.82;;;7.82;;
56830;SDS011;42713;42.676;23.352;2023-05-07T03:29:23;13.93;;;7.88;;
56830;SDS011;42713;42.676;23.352;2023-05-07T03:31:48;14.07;;;8.82;;
56830;SDS011;42713;42.676;23.352;2023-05-07T03:34:14;13.70;;;7.40;;
56830;SDS011;42713;42.676;23.352;2023-05-07T03:36:40;12.98;;;7.93;;
56830;SDS011;42713;42.676;23.352;2023-05-07T03:39:05;14.68;;;8.45;;
56830;SDS011;42713;42.676;23.352;2023-05-07T03:41:32;15.55;;;7.88;;
56830;SDS011;42713;42.676;23.352;2023-05-07T03:43:57;13.70;;;8.02;;
56830;SDS011;42713;42.676;23.352;2023-05-07T03:46:22;11.68;;;7.78;;
56830;SDS011;42713;42.676;23.352;2023-05-07T03:48:51;14.95;;;8.55;;
56830;SDS011;42713;42.676;23.352;2023-05-07T03:51:16;14.32;;;7.97;;
56830;SDS011;42713;42.676;23.352;2023-05-07T03:53:42;12.77;;;7.93;;
56830;SDS011;42713;42.676;23.352;2023-05-07T03:56:07;17.20;;;8.07;;
56830;SDS011;42713;42.676;23.352;2023-05-07T03:58:34;14.73;;;8.43;;
56830;SDS011;42713;42.676;23.352;2023-05-07T04:01:00;15.82;;;8.63;;
56830;SDS011;42713;42.676;23.352;2023-05-07T04:03:25;14.10;;;9.07;;
56830;SDS011;42713;42.676;23.352;2023-05-07T04:05:50;13.95;;;8.95;;
56830;SDS011;42713;42.676;23.352;2023-05-07T04:08:16;15.70;;;9.45;;
56830;SDS011;42713;42.676;23.352;2023-05-07T04:10:41;16.23;;;9.70;;
56830;SDS011;42713;42.676;23.352;2023-05-07T04:13:07;23.48;;;13.15;;
56830;SDS011;42713;42.676;23.352;2023-05-07T04:15:32;19.95;;;11.60;;
56830;SDS011;42713;42.676;23.352;2023-05-07T04:17:57;19.52;;;12.40;;
56830;SDS011;42713;42.676;23.352;2023-05-07T04:20:23;18.35;;;9.57;;
56830;SDS011;42713;42.676;23.352;2023-05-07T04:22:48;20.55;;;10.70;;
56830;SDS011;42713;42.676;23.352;2023-05-07T04:25:15;15.82;;;9.55;;
56830;SDS011;42713;42.676;23.352;2023-05-07T04:27:41;16.05;;;9.50;;
56830;SDS011;42713;42.676;23.352;2023-05-07T04:30:06;16.17;;;9.48;;
56830;SDS011;42713;42.676;23.352;2023-05-07T04:32:33;13.40;;;8.63;;
56830;SDS011;42713;42.676;23.352;2023-05-07T04:34:58;16.65;;;8.27;;
56830;SDS011;42713;42.676;23.352;2023-05-07T04:37:24;15.75;;;8.23;;
56830;SDS011;42713;42.676;23.352;2023-05-07T04:39:50;14.43;;;8.45;;
56830;SDS011;42713;42.676;23.352;2023-05-07T04:42:16;13.60;;;8.63;;
56830;SDS011;42713;42.676;23.352;2023-05-07T04:44:43;16.92;;;8.77;;
56830;SDS011;42713;42.676;23.352;2023-05-07T04:47:09;14.98;;;8.35;;
56830;SDS011;42713;42.676;23.352;2023-05-07T04:49:35;14.15;;;8.32;;
56830;SDS011;42713;42.676;23.352;2023-05-07T04:52:00;14.50;;;7.65;;
56830;SDS011;42713;42.676;23.352;2023-05-07T04:54:26;14.48;;;9.07;;
56830;SDS011;42713;42.676;23.352;2023-05-07T04:56:51;15.38;;;8.80;;
56830;SDS011;42713;42.676;23.352;2023-05-07T04:59:17;15.45;;;9.32;;
56830;SDS011;42713;42.676;23.352;2023-05-07T05:01:43;15.07;;;8.98;;
56830;SDS011;42713;42.676;23.352;2023-05-07T05:04:08;18.98;;;9.35;;
56830;SDS011;42713;42.676;23.352;2023-05-07T05:06:34;15.57;;;9.15;;
56830;SDS011;42713;42.676;23.352;2023-05-07T05:08:59;16.33;;;9.23;;
56830;SDS011;42713;42.676;23.352;2023-05-07T05:11:24;16.85;;;9.70;;
56830;SDS011;42713;42.676;23.352;2023-05-07T05:13:50;16.10;;;8.57;;
56830;SDS011;42713;42.676;23.352;2023-05-07T05:16:17;19.65;;;10.20;;
56830;SDS011;42713;42.676;23.352;2023-05-07T05:18:42;20.90;;;11.07;;
56830;SDS011;42713;42.676;23.352;2023-05-07T05:21:08;16.48;;;10.25;;
56830;SDS011;42713;42.676;23.352;2023-05-07T05:23:33;20.48;;;12.10;;
56830;SDS011;42713;42.676;23.352;2023-05-07T05:25:59;17.40;;;9.82;;
56830;SDS011;42713;42.676;23.352;2023-05-07T05:28:24;15.90;;;9.98;;
56830;SDS011;42713;42.676;23.352;2023-05-07T05:30:50;17.00;;;10.50;;
56830;SDS011;42713;42.676;23.352;2023-05-07T05:33:15;16.15;;;10.40;;
56830;SDS011;42713;42.676;23.352;2023-05-07T05:35:41;17.98;;;11.05;;
56830;SDS011;42713;42.676;23.352;2023-05-07T05:38:07;15.75;;;10.32;;
56830;SDS011;42713;42.676;23.352;2023-05-07T05:40:33;17.45;;;10.63;;
56830;SDS011;42713;42.676;23.352;2023-05-07T05:42:58;16.63;;;9.85;;
56830;SDS011;42713;42.676;23.352;2023-05-07T05:45:24;25.52;;;10.50;;
56830;SDS011;42713;42.676;23.352;2023-05-07T05:47:50;18.08;;;9.88;;
56830;SDS011;42713;42.676;23.352;2023-05-07T05:50:15;14.60;;;10.35;;
56830;SDS011;42713;42.676;23.352;2023-05-07T05:52:41;21.13;;;11.30;;
56830;SDS011;42713;42.676;23.352;2023-05-07T05:55:07;15.70;;;10.30;;
56830;SDS011;42713;42.676;23.352;2023-05-07T05:57:33;15.52;;;10.35;;
56830;SDS011;42713;42.676;23.352;2023-05-07T05:59:58;14.98;;;10.20;;
56830;SDS011;42713;42.676;23.352;2023-05-07T06:02:24;17.80;;;10.02;;
56830;SDS011;42713;42.676;23.352;2023-05-07T06:04:50;18.38;;;10.68;;
56830;SDS011;42713;42.676;23.352;2023-05-07T06:07:15;16.55;;;10.48;;
56830;SDS011;42713;42.676;23.352;2023-05-07T06:09:41;15.50;;;10.02;;
56830;SDS011;42713;42.676;23.352;2023-05-07T06:12:06;17.70;;;10.48;;
56830;SDS011;42713;42.676;23.352;2023-05-07T06:14:32;18.50;;;10.13;;
56830;SDS011;42713;42.676;23.352;2023-05-07T06:16:57;15.93;;;9.80;;
56830;SDS011;42713;42.676;23.352;2023-05-07T06:19:23;16.25;;;10.00;;
56830;SDS011;42713;42.676;23.352;2023-05-07T06:21:49;15.63;;;9.77;;
56830;SDS011;42713;42.676;23.352;2023-05-07T06:24:15;18.75;;;9.80;;
56830;SDS011;42713;42.676;23.352;2023-05-07T06:26:40;17.88;;;9.60;;
56830;SDS011;42713;42.676;23.352;2023-05-07T06:29:06;18.98;;;9.48;;
56830;SDS011;42713;42.676;23.352;2023-05-07T06:31:31;15.95;;;9.13;;
56830;SDS011;42713;42.676;23.352;2023-05-07T06:33:57;19.25;;;9.40;;
56830;SDS011;42713;42.676;23.352;2023-05-07T06:36:24;18.38;;;9.63;;
56830;SDS011;42713;42.676;23.352;2023-05-07T06:38:50;13.98;;;8.05;;
56830;SDS011;42713;42.676;23.352;2023-05-07T06:41:16;14.90;;;9.65;;
56830;SDS011;42713;42.676;23.352;2023-05-07T06:43:41;14.93;;;8.73;;
56830;SDS011;42713;42.676;23.352;2023-05-07T06:46:06;15.43;;;9.70;;
56830;SDS011;42713;42.676;23.352;2023-05-07T06:48:32;14.95;;;9.23;;
56830;SDS011;42713;42.676;23.352;2023-05-07T06:50:58;15.80;;;9.38;;
56830;SDS011;42713;42.676;23.352;2023-05-07T06:53:23;17.38;;;9.55;;
56830;SDS011;42713;42.676;23.352;2023-05-07T06:55:49;19.40;;;9.52;;
56830;SDS011;42713;42.676;23.352;2023-05-07T06:58:15;15.52;;;9.10;;
56830;SDS011;42713;42.676;23.352;2023-05-07T07:00:41;15.35;;;8.60;;
56830;SDS011;42713;42.676;23.352;2023-05-07T07:03:06;15.15;;;9.18;;
56830;SDS011;42713;42.676;23.352;2023-05-07T07:05:32;17.67;;;9.32;;
56830;SDS011;42713;42.676;23.352;2023-05-07T07:07:57;14.93;;;8.93;;
56830;SDS011;42713;42.676;23.352;2023-05-07T07:10:23;14.60;;;8.93;;
56830;SDS011;42713;42.676;23.352;2023-05-07T07:12:52;17.63;;;9.57;;
56830;SDS011;42713;42.676;23.352;2023-05-07T07:15:19;16.90;;;8.48;;
56830;SDS011;42713;42.676;23.352;2023-05-07T07:17:45;15.82;;;9.75;;
56830;SDS011;42713;42.676;23.352;2023-05-07T07:20:11;16.42;;;9.35;;
56830;SDS011;42713;42.676;23.352;2023-05-07T07:22:37;17.70;;;9.70;;
56830;SDS011;42713;42.676;23.352;2023-05-07T07:25:02;16.77;;;10.75;;
56830;SDS011;42713;42.676;23.352;2023-05-07T07:27:28;17.75;;;10.90;;
56830;SDS011;42713;42.676;23.352;2023-05-07T07:29:53;19.77;;;10.38;;
56830;SDS011;42713;42.676;23.352;2023-05-07T07:32:19;16.52;;;10.25;;
56830;SDS011;42713;42.676;23.352;2023-05-07T07:34:44;20.20;;;10.48;;
56830;SDS011;42713;42.676;23.352;2023-05-07T07:37:10;22.80;;;10.45;;
56830;SDS011;42713;42.676;23.352;2023-05-07T07:39:35;14.90;;;9.20;;
56830;SDS011;42713;42.676;23.352;2023-05-07T07:42:02;15.80;;;9.20;;
56830;SDS011;42713;42.676;23.352;2023-05-07T07:44:28;18.80;;;11.10;;
56830;SDS011;42713;42.676;23.352;2023-05-07T07:46:53;17.67;;;9.10;;
56830;SDS011;42713;42.676;23.352;2023-05-07T07:49:19;17.35;;;9.73;;
56830;SDS011;42713;42.676;23.352;2023-05-07T07:51:45;16.75;;;9.65;;
56830;SDS011;42713;42.676;23.352;2023-05-07T07:54:10;16.67;;;9.75;;
56830;SDS011;42713;42.676;23.352;2023-05-07T07:56:35;20.77;;;10.70;;
56830;SDS011;42713;42.676;23.352;2023-05-07T07:59:01;16.38;;;9.85;;
56830;SDS011;42713;42.676;23.352;2023-05-07T08:01:27;17.77;;;10.35;;
56830;SDS011;42713;42.676;23.352;2023-05-07T08:03:54;17.70;;;9.00;;
56830;SDS011;42713;42.676;23.352;2023-05-07T08:06:20;17.15;;;9.55;;
56830;SDS011;42713;42.676;23.352;2023-05-07T08:08:46;16.35;;;8.88;;
56830;SDS011;42713;42.676;23.352;2023-05-07T08:11:11;15.25;;;8.25;;
56830;SDS011;42713;42.676;23.352;2023-05-07T08:13:37;16.08;;;9.48;;
56830;SDS011;42713;42.676;23.352;2023-05-07T08:16:03;18.98;;;9.25;;
56830;SDS011;42713;42.676;23.352;2023-05-07T08:18:29;18.30;;;8.70;;
56830;SDS011;42713;42.676;23.352;2023-05-07T08:20:55;16.48;;;8.43;;
56830;SDS011;42713;42.676;23.352;2023-05-07T08:23:21;17.42;;;9.27;;
56830;SDS011;42713;42.676;23.352;2023-05-07T08:25:47;14.23;;;8.30;;
56830;SDS011;42713;42.676;23.352;2023-05-07T08:28:14;15.30;;;7.63;;
56830;SDS011;42713;42.676;23.352;2023-05-07T08:30:40;14.95;;;8.30;;
56830;SDS011;42713;42.676;23.352;2023-05-07T08:33:05;15.40;;;7.80;;
56830;SDS011;42713;42.676;23.352;2023-05-07T08:35:31;13.88;;;7.30;;
56830;SDS011;42713;42.676;23.352;2023-05-07T08:37:56;16.20;;;7.53;;
56830;SDS011;42713;42.676;23.352;2023-05-07T08:40:25;15.10;;;7.55;;
56830;SDS011;42713;42.676;23.352;2023-05-07T08:42:52;14.50;;;7.13;;
56830;SDS011;42713;42.676;23.352;2023-05-07T08:45:18;17.17;;;7.05;;
56830;SDS011;42713;42.676;23.352;2023-05-07T08:47:50;14.10;;;6.85;;
56830;SDS011;42713;42.676;23.352;2023-05-07T08:50:21;15.23;;;6.85;;
56830;SDS011;42713;42.676;23.352;2023-05-07T08:52:47;12.20;;;7.28;;
56830;SDS011;42713;42.676;23.352;2023-05-07T08:55:13;15.20;;;6.35;;
56830;SDS011;42713;42.676;23.352;2023-05-07T08:57:39;11.27;;;5.57;;
56830;SDS011;42713;42.676;23.352;2023-05-07T09:00:04;11.88;;;4.93;;
56830;SDS011;42713;42.676;23.352;2023-05-07T09:02:32;8.95;;;4.45;;
56830;SDS011;42713;42.676;23.352;2023-05-07T09:04:58;8.50;;;4.32;;
56830;SDS011;42713;42.676;23.352;2023-05-07T09:07:24;9.93;;;4.70;;
56830;SDS011;42713;42.676;23.352;2023-05-07T09:09:51;12.15;;;4.90;;
56830;SDS011;42713;42.676;23.352;2023-05-07T09:12:17;10.50;;;4.75;;
56830;SDS011;42713;42.676;23.352;2023-05-07T09:14:43;12.35;;;4.72;;
56830;SDS011;42713;42.676;23.352;2023-05-07T09:17:09;11.70;;;5.38;;
56830;SDS011;42713;42.676;23.352;2023-05-07T09:19:34;17.40;;;5.68;;
56830;SDS011;42713;42.676;23.352;2023-05-07T09:22:00;10.25;;;5.13;;
56830;SDS011;42713;42.676;23.352;2023-05-07T09:24:27;9.15;;;5.35;;
56830;SDS011;42713;42.676;23.352;2023-05-07T09:26:57;11.55;;;6.03;;
56830;SDS011;42713;42.676;23.352;2023-05-07T09:29:23;10.55;;;4.57;;
56830;SDS011;42713;42.676;23.352;2023-05-07T09:31:48;12.05;;;5.40;;
56830;SDS011;42713;42.676;23.352;2023-05-07T09:34:14;12.30;;;4.65;;
56830;SDS011;42713;42.676;23.352;2023-05-07T09:36:39;10.73;;;5.07;;
56830;SDS011;42713;42.676;23.352;2023-05-07T09:39:05;8.65;;;4.55;;
56830;SDS011;42713;42.676;23.352;2023-05-07T09:41:30;12.65;;;4.00;;
56830;SDS011;42713;42.676;23.352;2023-05-07T09:43:58;8.73;;;4.35;;
56830;SDS011;42713;42.676;23.352;2023-05-07T09:46:27;12.50;;;4.68;;
56830;SDS011;42713;42.676;23.352;2023-05-07T09:48:57;14.60;;;5.88;;
56830;SDS011;42713;42.676;23.352;2023-05-07T09:51:30;14.48;;;5.47;;
56830;SDS011;42713;42.676;23.352;2023-05-07T09:54:02;10.00;;;4.88;;
56830;SDS011;42713;42.676;23.352;2023-05-07T09:56:32;9.25;;;4.55;;
56830;SDS011;42713;42.676;23.352;2023-05-07T09:59:01;9.35;;;4.32;;
56830;SDS011;42713;42.676;23.352;2023-05-07T10:01:29;10.60;;;3.95;;
56830;SDS011;42713;42.676;23.352;2023-05-07T10:03:56;7.55;;;3.50;;
56830;SDS011;42713;42.676;23.352;2023-05-07T10:06:23;9.55;;;3.85;;
56830;SDS011;42713;42.676;23.352;2023-05-07T10:08:50;8.25;;;3.88;;
56830;SDS011;42713;42.676;23.352;2023-05-07T10:11:17;7.55;;;3.78;;
56830;SDS011;42713;42.676;23.352;2023-05-07T10:13:43;7.63;;;3.45;;
56830;SDS011;42713;42.676;23.352;2023-05-07T10:16:08;9.15;;;3.38;;
56830;SDS011;42713;42.676;23.352;2023-05-07T10:18:34;8.43;;;3.25;;
56830;SDS011;42713;42.676;23.352;2023-05-07T10:21:02;7.60;;;3.10;;
56830;SDS011;42713;42.676;23.352;2023-05-07T10:23:32;7.55;;;3.30;;
56830;SDS011;42713;42.676;23.352;2023-05-07T10:26:03;7.32;;;3.10;;
56830;SDS011;42713;42.676;23.352;2023-05-07T10:28:30;8.43;;;3.15;;
56830;SDS011;42713;42.676;23.352;2023-05-07T10:33:42;8.77;;;3.38;;
56830;SDS011;42713;42.676;23.352;2023-05-07T10:36:11;7.00;;;3.17;;
56830;SDS011;42713;42.676;23.352;2023-05-07T10:38:36;10.73;;;3.70;;
56830;SDS011;42713;42.676;23.352;2023-05-07T10:41:02;8.88;;;3.65;;
56830;SDS011;42713;42.676;23.352;2023-05-07T10:43:43;10.65;;;3.25;;
56830;SDS011;42713;42.676;23.352;2023-05-07T10:46:17;10.68;;;3.70;;
56830;SDS011;42713;42.676;23.352;2023-05-07T10:51:33;9.05;;;3.20;;
56830;SDS011;42713;42.676;23.352;2023-05-07T10:56:35;10.27;;;3.60;;
56830;SDS011;42713;42.676;23.352;2023-05-07T11:01:54;8.20;;;3.80;;
56830;SDS011;42713;42.676;23.352;2023-05-07T11:04:22;7.28;;;3.65;;
56830;SDS011;42713;42.676;23.352;2023-05-07T11:12:46;7.10;;;3.42;;
56830;SDS011;42713;42.676;23.352;2023-05-07T11:15:06;10.15;;;3.35;;
56830;SDS011;42713;42.676;23.352;2023-05-07T11:18:08;10.80;;;3.28;;
56830;SDS011;42713;42.676;23.352;2023-05-07T11:25:59;11.45;;;3.45;;
56830;SDS011;42713;42.676;23.352;2023-05-07T11:28:39;8.15;;;3.50;;
56830;SDS011;42713;42.676;23.352;2023-05-07T11:31:06;8.32;;;3.65;;
56830;SDS011;42713;42.676;23.352;2023-05-07T11:33:32;8.27;;;3.17;;
56830;SDS011;42713;42.676;23.352;2023-05-07T11:35:59;8.98;;;3.08;;
56830;SDS011;42713;42.676;23.352;2023-05-07T11:38:25;7.30;;;3.15;;
56830;SDS011;42713;42.676;23.352;2023-05-07T11:41:00;9.98;;;3.10;;
56830;SDS011;42713;42.676;23.352;2023-05-07T11:43:26;9.55;;;3.38;;
56830;SDS011;42713;42.676;23.352;2023-05-07T11:45:52;8.32;;;3.08;;
56830;SDS011;42713;42.676;23.352;2023-05-07T11:48:18;7.57;;;3.20;;
56830;SDS011;42713;42.676;23.352;2023-05-07T11:50:52;7.45;;;3.00;;
56830;SDS011;42713;42.676;23.352;2023-05-07T11:53:19;8.15;;;3.20;;
56830;SDS011;42713;42.676;23.352;2023-05-07T11:55:45;7.38;;;3.10;;
56830;SDS011;42713;42.676;23.352;2023-05-07T11:58:12;7.00;;;3.22;;
56830;SDS011;42713;42.676;23.352;2023-05-07T12:00:48;7.97;;;3.30;;
56830;SDS011;42713;42.676;23.352;2023-05-07T12:03:14;8.30;;;3.53;;
56830;SDS011;42713;42.676;23.352;2023-05-07T12:05:40;9.75;;;3.08;;
56830;SDS011;42713;42.676;23.352;2023-05-07T12:08:07;10.85;;;3.13;;
56830;SDS011;42713;42.676;23.352;2023-05-07T12:10:33;9.15;;;2.95;;
56830;SDS011;42713;42.676;23.352;2023-05-07T12:12:58;7.55;;;3.17;;
56830;SDS011;42713;42.676;23.352;2023-05-07T12:15:23;7.80;;;3.30;;
56830;SDS011;42713;42.676;23.352;2023-05-07T12:17:49;13.15;;;2.78;;
56830;SDS011;42713;42.676;23.352;2023-05-07T12:20:15;9.38;;;3.10;;
56830;SDS011;42713;42.676;23.352;2023-05-07T12:22:42;6.80;;;3.00;;
56830;SDS011;42713;42.676;23.352;2023-05-07T12:25:08;8.65;;;3.22;;
56830;SDS011;42713;42.676;23.352;2023-05-07T12:27:36;9.13;;;2.55;;
56830;SDS011;42713;42.676;23.352;2023-05-07T12:30:04;8.82;;;3.28;;
56830;SDS011;42713;42.676;23.352;2023-05-07T12:32:30;6.93;;;2.60;;
56830;SDS011;42713;42.676;23.352;2023-05-07T12:35:01;7.72;;;2.65;;
56830;SDS011;42713;42.676;23.352;2023-05-07T12:37:26;7.72;;;3.03;;
56830;SDS011;42713;42.676;23.352;2023-05-07T12:40:08;8.77;;;2.92;;
56830;SDS011;42713;42.676;23.352;2023-05-07T12:42:35;6.75;;;3.00;;
56830;SDS011;42713;42.676;23.352;2023-05-07T12:45:09;7.75;;;2.55;;
56830;SDS011;42713;42.676;23.352;2023-05-07T12:47:35;6.43;;;2.58;;
56830;SDS011;42713;42.676;23.352;2023-05-07T12:50:00;5.82;;;2.60;;
56830;SDS011;42713;42.676;23.352;2023-05-07T12:52:26;6.22;;;2.40;;
56830;SDS011;42713;42.676;23.352;2023-05-07T12:54:51;7.60;;;2.47;;
56830;SDS011;42713;42.676;23.352;2023-05-07T12:57:18;6.63;;;2.40;;
56830;SDS011;42713;42.676;23.352;2023-05-07T12:59:44;6.88;;;2.30;;
56830;SDS011;42713;42.676;23.352;2023-05-07T13:02:15;7.55;;;2.35;;
56830;SDS011;42713;42.676;23.352;2023-05-07T13:04:41;5.55;;;2.28;;
56830;SDS011;42713;42.676;23.352;2023-05-07T13:07:06;8.27;;;2.30;;
56830;SDS011;42713;42.676;23.352;2023-05-07T13:09:32;6.53;;;2.08;;
56830;SDS011;42713;42.676;23.352;2023-05-07T13:11:57;7.13;;;2.40;;
56830;SDS011;42713;42.676;23.352;2023-05-07T13:14:26;5.53;;;2.20;;
56830;SDS011;42713;42.676;23.352;2023-05-07T13:16:57;8.88;;;2.40;;
56830;SDS011;42713;42.676;23.352;2023-05-07T13:19:50;5.82;;;2.33;;
56830;SDS011;42713;42.676;23.352;2023-05-07T13:22:15;10.57;;;2.35;;
56830;SDS011;42713;42.676;23.352;2023-05-07T13:24:41;7.90;;;2.35;;
56830;SDS011;42713;42.676;23.352;2023-05-07T13:27:08;9.57;;;2.55;;
56830;SDS011;42713;42.676;23.352;2023-05-07T13:29:33;8.85;;;2.55;;
56830;SDS011;42713;42.676;23.352;2023-05-07T13:31:59;5.18;;;2.28;;
56830;SDS011;42713;42.676;23.352;2023-05-07T13:34:25;8.60;;;2.17;;
56830;SDS011;42713;42.676;23.352;2023-05-07T13:36:50;6.72;;;2.50;;
56830;SDS011;42713;42.676;23.352;2023-05-07T13:39:17;7.15;;;2.40;;
56830;SDS011;42713;42.676;23.352;2023-05-07T13:41:42;7.10;;;2.33;;
56830;SDS011;42713;42.676;23.352;2023-05-07T13:44:08;7.28;;;2.15;;
56830;SDS011;42713;42.676;23.352;2023-05-07T13:46:33;5.20;;;2.22;;
56830;SDS011;42713;42.676;23.352;2023-05-07T13:48:58;5.93;;;2.25;;
56830;SDS011;42713;42.676;23.352;2023-05-07T13:51:24;6.80;;;2.60;;
56830;SDS011;42713;42.676;23.352;2023-05-07T13:53:50;7.35;;;2.35;;
56830;SDS011;42713;42.676;23.352;2023-05-07T13:56:17;6.85;;;2.15;;
56830;SDS011;42713;42.676;23.352;2023-05-07T13:58:47;5.32;;;2.00;;
56830;SDS011;42713;42.676;23.352;2023-05-07T14:01:12;7.05;;;2.20;;
56830;SDS011;42713;42.676;23.352;2023-05-07T14:03:38;5.57;;;2.30;;
56830;SDS011;42713;42.676;23.352;2023-05-07T14:06:04;6.28;;;2.38;;
56830;SDS011;42713;42.676;23.352;2023-05-07T14:08:30;7.78;;;2.40;;
56830;SDS011;42713;42.676;23.352;2023-05-07T14:10:55;7.22;;;2.33;;
56830;SDS011;42713;42.676;23.352;2023-05-07T14:13:21;4.75;;;2.25;;
56830;SDS011;42713;42.676;23.352;2023-05-07T14:15:46;4.88;;;2.08;;
56830;SDS011;42713;42.676;23.352;2023-05-07T14:18:14;6.65;;;2.10;;
56830;SDS011;42713;42.676;23.352;2023-05-07T14:20:40;5.30;;;2.10;;
56830;SDS011;42713;42.676;23.352;2023-05-07T14:23:05;5.25;;;1.92;;
56830;SDS011;42713;42.676;23.352;2023-05-07T14:25:31;7.07;;;2.15;;
56830;SDS011;42713;42.676;23.352;2023-05-07T14:27:57;5.38;;;2.13;;
56830;SDS011;42713;42.676;23.352;2023-05-07T14:30:22;5.45;;;2.40;;
56830;SDS011;42713;42.676;23.352;2023-05-07T14:35:52;6.78;;;2.55;;
56830;SDS011;42713;42.676;23.352;2023-05-07T14:38:17;6.95;;;2.42;;
56830;SDS011;42713;42.676;23.352;2023-05-07T14:40:43;7.65;;;1.95;;
56830;SDS011;42713;42.676;23.352;2023-05-07T14:43:09;5.50;;;2.40;;
56830;SDS011;42713;42.676;23.352;2023-05-07T14:45:34;6.55;;;2.30;;
56830;SDS011;42713;42.676;23.352;2023-05-07T14:48:00;4.97;;;2.13;;